Time;durP1;ratioP1;P1;durP2;ratioP2;P2;SDS_P1;SDS_P2;PMS_P1;PMS_P2;Temp;Humidity;BMP_temperature;BMP_pressure;BME280_temperature;BME280_humidity;BME280_pressure;Samples;Min_cycle;Max_cycle;Signal;HPM_P1;HPM_P2
2023/12/07 00:00:19;;;;;;;11.85;6.65;;;3.70;99.90;;;;;;5054105;28;20057;-84
2023/12/07 00:02:44;;;;;;;11.35;6.57;;;3.70;99.90;;;;;;5053182;28;20072;-84
2023/12/07 00:05:10;;;;;;;12.00;6.78;;;3.70;99.90;;;;;;5052889;28;20477;-84
2023/12/07 00:07:35;;;;;;;13.32;7.28;;;3.70;99.90;;;;;;5052464;28;20124;-84
2023/12/07 00:10:01;;;;;;;12.98;7.78;;;3.70;99.90;;;;;;5052803;28;20101;-84
2023/12/07 00:12:27;;;;;;;11.10;7.00;;;3.70;99.90;;;;;;5052763;28;20116;-84
2023/12/07 00:15:05;;;;;;;14.60;6.95;;;3.60;99.90;;;;;;5077244;22;20061;-84
2023/12/07 00:17:34;;;;;;;16.40;7.80;;;3.60;99.90;;;;;;5052539;28;20052;-84
2023/12/07 00:20:07;;;;;;;14.43;8.10;;;3.60;99.90;;;;;;5052390;28;20044;-84
2023/12/07 00:22:33;;;;;;;13.35;7.55;;;3.60;99.90;;;;;;5052761;28;20102;-84
2023/12/07 00:25:05;;;;;;;14.70;7.28;;;3.50;99.90;;;;;;5052477;28;20041;-84
2023/12/07 00:27:30;;;;;;;13.02;7.35;;;3.50;99.90;;;;;;5052463;28;20056;-84
2023/12/07 00:29:56;;;;;;;13.95;7.80;;;3.50;99.90;;;;;;5052041;28;20040;-84
2023/12/07 00:32:22;;;;;;;35.45;10.05;;;3.50;99.90;;;;;;5052653;28;20128;-84
2023/12/07 00:34:48;;;;;;;12.93;7.35;;;3.50;99.90;;;;;;5052385;28;20047;-84
2023/12/07 00:37:14;;;;;;;13.40;7.55;;;3.40;99.90;;;;;;5052637;28;20080;-84
2023/12/07 00:39:41;;;;;;;12.65;7.10;;;3.40;99.90;;;;;;5052337;28;20179;-84
2023/12/07 00:42:07;;;;;;;14.10;7.55;;;3.40;99.90;;;;;;5052354;28;20131;-84
2023/12/07 00:44:32;;;;;;;17.35;8.13;;;3.40;99.90;;;;;;5052058;28;20123;-83
2023/12/07 00:46:58;;;;;;;13.32;7.60;;;3.40;99.90;;;;;;5052777;28;20053;-83
2023/12/07 00:49:23;;;;;;;17.92;8.43;;;3.40;99.90;;;;;;5052032;28;20036;-83
2023/12/07 00:51:49;;;;;;;16.45;8.93;;;3.30;99.90;;;;;;5052020;28;20060;-84
2023/12/07 00:54:15;;;;;;;14.27;7.95;;;3.30;99.90;;;;;;5052279;28;20136;-84
2023/12/07 00:56:40;;;;;;;14.40;8.20;;;3.30;99.90;;;;;;5052033;28;20041;-84
2023/12/07 00:59:06;;;;;;;15.70;7.90;;;3.30;99.90;;;;;;5052272;28;20049;-84
2023/12/07 01:01:32;;;;;;;13.55;7.70;;;3.30;99.90;;;;;;5052024;28;20033;-84
2023/12/07 01:03:58;;;;;;;15.45;8.02;;;3.30;99.90;;;;;;5052134;28;20037;-84
2023/12/07 01:06:23;;;;;;;14.10;8.05;;;3.30;99.90;;;;;;5052122;28;20076;-84
2023/12/07 01:08:49;;;;;;;17.23;8.20;;;3.30;99.90;;;;;;5052125;28;20127;-84
2023/12/07 01:11:15;;;;;;;14.93;7.97;;;3.30;99.90;;;;;;5052181;28;20076;-84
2023/12/07 01:13:40;;;;;;;16.40;8.55;;;3.30;99.90;;;;;;5051845;28;20112;-84
2023/12/07 01:16:09;;;;;;;15.90;8.27;;;3.20;99.90;;;;;;5052388;28;20075;-84
2023/12/07 01:18:35;;;;;;;16.92;8.80;;;3.20;99.90;;;;;;5051849;28;20128;-84
2023/12/07 01:21:01;;;;;;;17.00;8.48;;;3.20;99.90;;;;;;5051959;28;20125;-84
2023/12/07 01:23:26;;;;;;;16.98;8.55;;;3.20;99.90;;;;;;5052225;28;20099;-84
2023/12/07 01:25:52;;;;;;;13.77;8.15;;;3.20;99.90;;;;;;5052193;28;20041;-84
2023/12/07 01:28:18;;;;;;;13.68;8.23;;;3.20;99.90;;;;;;5052467;28;20045;-84
2023/12/07 01:30:43;;;;;;;16.98;8.02;;;3.20;99.90;;;;;;5052069;28;20392;-84
2023/12/07 01:33:09;;;;;;;15.93;8.32;;;3.20;99.90;;;;;;5052034;28;20469;-84
2023/12/07 01:35:34;;;;;;;15.95;8.55;;;3.20;99.90;;;;;;5052075;28;20040;-84
2023/12/07 01:38:00;;;;;;;14.77;8.68;;;3.20;99.90;;;;;;5051823;28;20041;-84
2023/12/07 01:40:25;;;;;;;14.90;8.07;;;3.20;99.90;;;;;;5051954;28;20064;-84
2023/12/07 01:42:52;;;;;;;13.38;7.95;;;3.20;99.90;;;;;;5055003;28;20037;-84
2023/12/07 01:45:19;;;;;;;13.63;7.95;;;3.20;99.90;;;;;;5055604;28;20559;-84
2023/12/07 01:47:46;;;;;;;13.73;7.70;;;3.20;99.90;;;;;;5055400;28;20041;-84
2023/12/07 01:50:15;;;;;;;13.32;7.38;;;3.20;99.90;;;;;;5055742;28;20049;-84
2023/12/07 01:52:47;;;;;;;14.73;8.20;;;3.10;99.90;;;;;;5055776;28;20122;-84
2023/12/07 01:55:14;;;;;;;13.00;7.40;;;3.20;99.90;;;;;;5055834;28;20103;-83
2023/12/07 01:57:42;;;;;;;14.82;7.25;;;3.20;99.90;;;;;;5055457;28;20045;-84
2023/12/07 02:00:09;;;;;;;14.68;8.23;;;3.10;99.90;;;;;;5055524;28;20496;-84
2023/12/07 02:02:35;;;;;;;15.35;7.57;;;3.10;99.90;;;;;;5056683;28;20033;-84
2023/12/07 02:05:01;;;;;;;15.77;8.38;;;3.20;99.90;;;;;;5056437;28;20044;-84
2023/12/07 02:07:28;;;;;;;17.25;7.85;;;3.10;99.90;;;;;;5055042;28;20044;-84
2023/12/07 02:09:53;;;;;;;12.68;7.28;;;3.10;99.90;;;;;;5055177;28;20107;-84
2023/12/07 02:12:19;;;;;;;15.10;7.63;;;3.10;99.90;;;;;;5055194;28;20040;-84
2023/12/07 02:14:45;;;;;;;17.58;7.90;;;3.10;99.90;;;;;;5055404;28;20059;-84
2023/12/07 02:17:28;;;;;;;15.90;8.07;;;3.10;99.90;;;;;;5054891;28;20036;-84
2023/12/07 02:20:20;;;;;;;14.15;7.90;;;3.10;99.90;;;;;;5055235;28;20049;-84
2023/12/07 02:22:55;;;;;;;13.23;7.82;;;3.10;99.90;;;;;;5054721;28;20110;-84
2023/12/07 02:25:44;;;;;;;19.02;8.32;;;3.10;99.90;;;;;;5054780;28;20491;-84
2023/12/07 02:28:10;;;;;;;11.98;6.78;;;3.00;99.90;;;;;;5054092;28;20068;-84
2023/12/07 02:30:36;;;;;;;16.55;8.27;;;3.00;99.90;;;;;;5054728;28;20124;-84
2023/12/07 02:33:01;;;;;;;13.13;6.80;;;3.00;99.90;;;;;;5054887;28;20083;-84
2023/12/07 02:35:28;;;;;;;15.85;7.68;;;3.00;99.90;;;;;;5054545;28;20037;-84
2023/12/07 02:37:54;;;;;;;11.85;7.22;;;3.00;99.90;;;;;;5054451;28;20049;-84
2023/12/07 02:40:26;;;;;;;11.98;7.05;;;3.00;99.90;;;;;;5054808;28;20472;-84
2023/12/07 02:42:53;;;;;;;13.50;7.72;;;3.00;99.90;;;;;;5054570;28;20044;-84
2023/12/07 02:45:19;;;;;;;14.18;6.72;;;3.00;99.90;;;;;;5054454;28;20465;-84
2023/12/07 02:47:45;;;;;;;14.98;7.40;;;3.00;99.90;;;;;;5054375;28;20532;-84
2023/12/07 02:50:11;;;;;;;12.77;7.30;;;2.90;99.90;;;;;;5054174;28;20044;-84
2023/12/07 02:52:37;;;;;;;14.25;7.40;;;2.90;99.90;;;;;;5054304;28;20504;-84
2023/12/07 02:55:04;;;;;;;12.18;6.45;;;3.00;99.90;;;;;;5054219;28;20436;-84
2023/12/07 02:57:32;;;;;;;14.80;7.10;;;3.00;99.90;;;;;;5054050;28;20131;-84
2023/12/07 02:59:57;;;;;;;13.23;7.10;;;3.00;99.90;;;;;;5054229;28;20053;-83
2023/12/07 03:02:23;;;;;;;16.40;7.63;;;3.00;99.90;;;;;;5054218;28;20052;-83
2023/12/07 03:04:49;;;;;;;15.07;7.55;;;2.90;99.90;;;;;;5053791;28;20496;-83
2023/12/07 03:07:17;;;;;;;15.05;7.57;;;2.90;99.90;;;;;;5084663;22;20093;-83
2023/12/07 03:09:45;;;;;;;17.48;7.80;;;2.90;99.90;;;;;;5073769;28;20045;-83
2023/12/07 03:12:16;;;;;;;14.40;7.47;;;2.90;99.90;;;;;;5074106;28;20051;-83
2023/12/07 03:14:45;;;;;;;18.63;9.05;;;2.80;99.90;;;;;;5073766;28;20043;-83
2023/12/07 03:17:32;;;;;;;18.33;7.03;;;2.80;99.90;;;;;;5073753;28;20082;-83
2023/12/07 03:20:16;;;;;;;16.17;8.30;;;2.80;99.90;;;;;;5073672;28;20044;-83
2023/12/07 03:22:45;;;;;;;16.23;7.72;;;2.80;99.90;;;;;;5074071;28;20052;-84
2023/12/07 03:25:11;;;;;;;16.80;8.23;;;2.80;99.90;;;;;;5073794;28;20049;-84
2023/12/07 03:27:36;;;;;;;15.45;8.30;;;2.80;99.90;;;;;;5073496;28;20573;-84
2023/12/07 03:30:02;;;;;;;23.85;8.15;;;2.80;99.90;;;;;;5073798;28;20040;-84
2023/12/07 03:32:28;;;;;;;16.60;8.35;;;2.80;99.90;;;;;;5073621;28;20444;-84
2023/12/07 03:34:53;;;;;;;17.10;8.68;;;2.80;99.90;;;;;;5073555;28;20095;-84
2023/12/07 03:37:19;;;;;;;14.20;8.15;;;2.80;99.90;;;;;;5074736;28;20040;-84
2023/12/07 03:39:44;;;;;;;16.25;8.52;;;2.80;99.90;;;;;;5073267;28;20048;-84
2023/12/07 03:42:10;;;;;;;15.82;8.07;;;2.80;99.90;;;;;;5072945;28;20044;-84
2023/12/07 03:44:36;;;;;;;13.65;7.55;;;2.80;99.90;;;;;;5073090;28;20476;-84
2023/12/07 03:47:01;;;;;;;15.88;8.02;;;2.80;99.90;;;;;;5073156;28;20044;-84
2023/12/07 03:49:27;;;;;;;17.73;7.30;;;2.80;99.90;;;;;;5073562;28;20135;-84
2023/12/07 03:51:52;;;;;;;15.25;7.70;;;2.80;99.90;;;;;;5073464;28;20049;-84
2023/12/07 03:54:18;;;;;;;17.05;8.15;;;2.80;99.90;;;;;;5073395;28;20048;-84
2023/12/07 03:56:44;;;;;;;13.73;7.25;;;2.80;99.90;;;;;;5073191;28;20056;-84
2023/12/07 03:59:10;;;;;;;14.55;7.57;;;2.80;99.90;;;;;;5073032;28;20372;-84
2023/12/07 04:01:35;;;;;;;16.25;8.30;;;2.80;99.90;;;;;;5072964;28;20048;-84
2023/12/07 04:04:01;;;;;;;20.20;8.27;;;2.80;99.90;;;;;;5072192;28;20044;-84
2023/12/07 04:06:27;;;;;;;14.00;7.40;;;2.80;99.90;;;;;;5072693;28;20067;-84
2023/12/07 04:08:53;;;;;;;14.15;8.88;;;2.80;99.90;;;;;;5072898;28;20090;-84
2023/12/07 04:11:19;;;;;;;14.32;7.63;;;2.80;99.90;;;;;;5072707;28;20048;-84
2023/12/07 04:13:45;;;;;;;12.93;6.93;;;2.80;99.90;;;;;;5072730;28;20085;-84
2023/12/07 04:16:11;;;;;;;14.93;7.50;;;2.70;99.90;;;;;;5072817;28;20046;-84
2023/12/07 04:18:37;;;;;;;16.27;8.20;;;2.70;99.90;;;;;;5073156;28;20048;-84
2023/12/07 04:21:03;;;;;;;12.77;7.40;;;2.70;99.90;;;;;;5072741;28;20037;-84
2023/12/07 04:23:29;;;;;;;14.75;7.15;;;2.70;99.90;;;;;;5072647;28;20047;-84
2023/12/07 04:25:55;;;;;;;14.68;7.50;;;2.70;99.90;;;;;;5072481;28;20048;-84
2023/12/07 04:28:20;;;;;;;17.20;7.88;;;2.70;99.90;;;;;;5072483;28;20037;-84
2023/12/07 04:30:46;;;;;;;13.98;6.63;;;2.70;99.90;;;;;;5072542;28;20045;-84
2023/12/07 04:33:11;;;;;;;13.25;6.63;;;2.70;99.90;;;;;;5072744;28;20049;-84
2023/12/07 04:35:37;;;;;;;11.90;6.80;;;2.60;99.90;;;;;;5072850;28;20184;-84
2023/12/07 04:38:03;;;;;;;17.23;7.95;;;2.70;99.90;;;;;;5072484;28;20465;-84
2023/12/07 04:40:28;;;;;;;14.52;8.23;;;2.70;99.90;;;;;;5072184;28;20047;-84
2023/12/07 04:42:54;;;;;;;15.15;6.88;;;2.70;99.90;;;;;;5118612;22;20051;-84
2023/12/07 04:45:23;;;;;;;15.65;8.00;;;2.70;99.90;;;;;;5052201;28;20455;-84
2023/12/07 04:47:53;;;;;;;12.27;6.72;;;2.70;99.90;;;;;;5052217;28;20492;-84
2023/12/07 04:50:19;;;;;;;12.73;7.07;;;2.70;99.90;;;;;;5052212;28;20135;-84
2023/12/07 04:52:45;;;;;;;14.57;7.25;;;2.60;99.90;;;;;;5075455;22;20136;-84
2023/12/07 04:55:10;;;;;;;12.65;6.57;;;2.70;99.90;;;;;;5071823;28;20044;-84
2023/12/07 04:57:37;;;;;;;13.48;6.68;;;2.70;99.90;;;;;;5072517;28;20476;-84
2023/12/07 05:00:06;;;;;;;14.13;6.95;;;2.60;99.90;;;;;;5072282;28;20072;-84
2023/12/07 05:02:32;;;;;;;15.07;7.53;;;2.70;99.90;;;;;;5072565;28;20048;-84
2023/12/07 05:04:57;;;;;;;12.80;6.75;;;2.70;99.90;;;;;;5072172;28;20045;-84
2023/12/07 05:07:23;;;;;;;13.25;6.88;;;2.70;99.90;;;;;;5071924;28;20040;-84
2023/12/07 05:09:50;;;;;;;11.82;6.60;;;2.70;99.90;;;;;;5072275;28;20135;-84
2023/12/07 05:12:17;;;;;;;15.38;6.50;;;2.70;99.90;;;;;;5072389;28;20049;-85
2023/12/07 05:14:42;;;;;;;14.50;7.20;;;2.70;99.90;;;;;;5072098;28;20383;-85
2023/12/07 05:17:08;;;;;;;13.52;7.60;;;2.70;99.90;;;;;;5076252;28;20049;-84
2023/12/07 05:19:34;;;;;;;12.50;7.05;;;2.70;99.90;;;;;;5076258;28;20044;-84
2023/12/07 05:21:59;;;;;;;13.85;6.90;;;2.60;99.90;;;;;;5076451;28;20072;-84
2023/12/07 05:24:25;;;;;;;13.13;7.28;;;2.60;99.90;;;;;;5075715;28;20036;-84
2023/12/07 05:26:51;;;;;;;15.75;7.63;;;2.60;99.90;;;;;;5075811;28;20083;-84
2023/12/07 05:29:20;;;;;;;15.18;7.55;;;2.60;99.90;;;;;;5075998;28;20037;-84
2023/12/07 05:31:50;;;;;;;13.77;7.25;;;2.70;99.90;;;;;;5075903;28;20048;-84
2023/12/07 05:34:15;;;;;;;15.63;7.93;;;2.60;99.90;;;;;;5075883;28;20049;-84
2023/12/07 05:36:41;;;;;;;13.27;7.30;;;2.60;99.90;;;;;;5075903;28;20044;-84
2023/12/07 05:39:07;;;;;;;13.77;7.25;;;2.60;99.90;;;;;;5075739;28;20056;-84
2023/12/07 05:41:33;;;;;;;15.25;7.13;;;2.60;99.90;;;;;;5075969;28;20032;-84
2023/12/07 05:43:59;;;;;;;15.02;7.93;;;2.60;99.90;;;;;;5075509;28;20434;-84
2023/12/07 05:46:24;;;;;;;12.98;6.88;;;2.60;99.90;;;;;;5075708;28;20507;-84
2023/12/07 05:48:50;;;;;;;16.88;7.68;;;2.60;99.90;;;;;;5075748;28;20071;-84
2023/12/07 05:51:20;;;;;;;14.40;7.53;;;2.60;99.90;;;;;;5075146;28;20480;-84
2023/12/07 05:53:46;;;;;;;15.05;7.38;;;2.70;99.90;;;;;;5075496;28;20044;-84
2023/12/07 05:56:11;;;;;;;12.38;7.10;;;2.60;99.90;;;;;;5075287;28;20098;-84
2023/12/07 05:58:37;;;;;;;13.52;6.65;;;2.60;99.90;;;;;;5075504;28;20098;-84
2023/12/07 06:01:03;;;;;;;13.70;6.93;;;2.60;99.90;;;;;;5075400;28;20037;-84
2023/12/07 06:03:29;;;;;;;15.15;7.70;;;2.60;99.90;;;;;;5074975;28;20041;-84
2023/12/07 06:05:55;;;;;;;13.30;7.18;;;2.60;99.90;;;;;;5074965;28;20048;-84
2023/12/07 06:08:21;;;;;;;13.88;6.65;;;2.60;99.90;;;;;;5075384;28;20041;-84
2023/12/07 06:10:47;;;;;;;13.05;7.10;;;2.60;99.90;;;;;;5075225;28;20119;-84
2023/12/07 06:13:13;;;;;;;13.40;7.40;;;2.60;99.90;;;;;;5075593;28;20136;-84
2023/12/07 06:15:39;;;;;;;11.77;7.25;;;2.70;99.90;;;;;;5075118;28;20396;-84
2023/12/07 06:18:05;;;;;;;12.48;6.03;;;2.70;99.90;;;;;;5075063;28;20040;-84
2023/12/07 06:20:31;;;;;;;13.68;6.78;;;2.60;99.90;;;;;;5075183;28;20040;-84
2023/12/07 06:22:57;;;;;;;12.32;7.15;;;2.70;99.90;;;;;;5074927;28;20446;-84
2023/12/07 06:25:23;;;;;;;13.38;7.15;;;2.60;99.90;;;;;;5074814;28;20134;-84
2023/12/07 06:27:49;;;;;;;11.68;6.30;;;2.70;99.90;;;;;;5074246;28;20041;-84
2023/12/07 06:30:15;;;;;;;12.82;6.88;;;2.70;99.90;;;;;;5075137;28;20135;-84
2023/12/07 06:32:40;;;;;;;10.88;6.28;;;2.70;99.90;;;;;;5074683;28;20084;-84
2023/12/07 06:35:07;;;;;;;13.98;5.95;;;2.70;99.90;;;;;;5074836;28;20555;-85
2023/12/07 06:37:33;;;;;;;10.98;6.70;;;2.70;99.90;;;;;;5074633;28;20431;-85
2023/12/07 06:40:01;;;;;;;11.35;6.20;;;2.70;99.90;;;;;;5074837;28;20488;-84
2023/12/07 06:42:27;;;;;;;9.55;5.72;;;2.70;99.90;;;;;;5074429;28;20132;-84
2023/12/07 06:44:55;;;;;;;11.15;6.45;;;2.70;99.90;;;;;;5074515;28;20123;-84
2023/12/07 06:47:21;;;;;;;10.35;5.68;;;2.70;99.90;;;;;;5075805;28;20082;-85
2023/12/07 06:49:46;;;;;;;11.18;6.65;;;2.70;99.90;;;;;;5074418;28;20044;-85
2023/12/07 06:52:12;;;;;;;12.52;6.43;;;2.60;99.90;;;;;;5075542;28;20055;-84
2023/12/07 06:54:38;;;;;;;13.52;6.55;;;2.60;99.90;;;;;;5074240;28;20415;-84
2023/12/07 06:57:06;;;;;;;13.70;6.63;;;2.60;99.90;;;;;;5074344;28;20072;-85
2023/12/07 06:59:33;;;;;;;13.50;6.40;;;2.60;99.90;;;;;;5074239;28;20381;-84
2023/12/07 07:01:58;;;;;;;11.65;6.55;;;2.60;99.90;;;;;;5074336;28;20045;-84
2023/12/07 07:04:24;;;;;;;11.48;6.20;;;2.70;99.90;;;;;;5074061;28;20484;-84
2023/12/07 07:06:50;;;;;;;13.35;5.95;;;2.60;99.90;;;;;;5074406;28;20082;-84
2023/12/07 07:09:15;;;;;;;14.68;7.43;;;2.60;99.90;;;;;;5074422;28;20049;-84
2023/12/07 07:11:41;;;;;;;14.13;6.18;;;2.60;99.90;;;;;;5074093;28;20056;-84
2023/12/07 07:14:07;;;;;;;11.80;6.43;;;2.60;99.90;;;;;;5074102;28;20473;-84
2023/12/07 07:16:33;;;;;;;11.50;6.72;;;2.60;99.90;;;;;;5074083;28;20048;-84
2023/12/07 07:18:59;;;;;;;11.52;6.75;;;2.50;99.90;;;;;;5074016;28;20044;-84
2023/12/07 07:21:24;;;;;;;12.02;6.72;;;2.50;99.90;;;;;;5073323;28;20403;-84
2023/12/07 07:23:50;;;;;;;14.55;7.30;;;2.50;99.90;;;;;;5073603;28;20040;-85
2023/12/07 07:26:17;;;;;;;12.38;6.60;;;2.50;99.90;;;;;;5073872;28;20052;-85
2023/12/07 07:28:43;;;;;;;13.00;6.68;;;2.50;99.90;;;;;;5073815;28;20047;-85
2023/12/07 07:31:09;;;;;;;14.15;6.65;;;2.50;99.90;;;;;;5073612;28;20052;-85
2023/12/07 07:33:35;;;;;;;14.27;7.20;;;2.50;99.90;;;;;;5073478;28;20090;-84
2023/12/07 07:36:00;;;;;;;11.88;6.40;;;2.60;99.90;;;;;;5073809;28;20045;-85
2023/12/07 07:38:26;;;;;;;11.27;6.45;;;2.50;99.90;;;;;;5072742;28;20416;-85
2023/12/07 07:40:52;;;;;;;12.45;6.85;;;2.50;99.90;;;;;;5073108;28;20105;-85
2023/12/07 07:43:17;;;;;;;14.88;7.07;;;2.50;99.90;;;;;;5073343;28;20051;-85
2023/12/07 07:45:43;;;;;;;15.95;8.02;;;2.50;99.90;;;;;;5073164;28;20564;-85
2023/12/07 07:48:09;;;;;;;14.25;6.68;;;2.50;99.90;;;;;;5073105;28;20041;-83
2023/12/07 07:50:36;;;;;;;15.20;7.20;;;2.50;99.90;;;;;;5074403;28;20097;-83
2023/12/07 07:53:03;;;;;;;12.60;7.35;;;2.50;99.90;;;;;;5072757;28;20105;-83
2023/12/07 07:55:30;;;;;;;13.90;6.90;;;2.50;99.90;;;;;;5072968;28;20052;-85
2023/12/07 07:57:56;;;;;;;15.27;7.35;;;2.50;99.90;;;;;;5072844;28;20476;-86
2023/12/07 08:00:24;;;;;;;14.93;7.75;;;2.50;99.90;;;;;;5073142;28;20047;-86
2023/12/07 08:02:50;;;;;;;16.08;8.35;;;2.50;99.90;;;;;;5072714;28;20053;-86
2023/12/07 08:05:15;;;;;;;14.82;8.77;;;2.50;99.90;;;;;;5072915;28;20047;-86
2023/12/07 08:07:41;;;;;;;15.88;8.68;;;2.60;99.90;;;;;;5072732;28;20400;-84
2023/12/07 08:21:25;;;;;;;27.02;14.93;;;2.60;99.90;;;;;;6127385;22;2089827;-83
2023/12/07 08:24:05;;;;;;;20.13;11.02;;;2.60;99.90;;;;;;6192612;23;20028;-83
2023/12/07 08:26:34;;;;;;;19.40;12.05;;;2.60;99.90;;;;;;6192502;23;20028;-84
2023/12/07 08:29:06;;;;;;;25.00;13.30;;;2.60;99.90;;;;;;6192312;23;20024;-84
2023/12/07 08:31:39;;;;;;;24.15;14.32;;;2.60;99.90;;;;;;6192132;23;20021;-84
2023/12/07 08:34:11;;;;;;;28.67;13.70;;;2.60;99.90;;;;;;6192300;23;20013;-84
2023/12/07 08:39:10;;;;;;;24.08;12.30;;;2.60;99.90;;;;;;6164487;23;20454;-86
2023/12/07 08:41:36;;;;;;;25.83;14.57;;;2.50;99.90;;;;;;6137556;23;20025;-84
2023/12/07 08:44:08;;;;;;;23.75;13.73;;;2.50;99.90;;;;;;6140519;23;20005;-84
2023/12/07 08:46:37;;;;;;;24.13;11.48;;;2.60;99.90;;;;;;6167691;23;20064;-84
2023/12/07 08:49:12;;;;;;;20.42;10.65;;;2.60;99.90;;;;;;6167387;23;20048;-85
2023/12/07 08:51:53;;;;;;;18.73;10.40;;;2.60;99.90;;;;;;6167426;23;20384;-85
2023/12/07 08:54:37;;;;;;;20.50;11.15;;;2.70;99.90;;;;;;6167508;23;20021;-85
2023/12/07 08:57:12;;;;;;;22.80;10.82;;;2.80;99.90;;;;;;6167327;23;20017;-85
2023/12/07 08:59:38;;;;;;;15.75;8.93;;;2.90;99.90;;;;;;6167137;23;20013;-84
2023/12/07 09:02:06;;;;;;;18.08;10.20;;;3.00;99.90;;;;;;6167813;23;20102;-83
2023/12/07 09:04:32;;;;;;;18.58;10.18;;;3.00;99.90;;;;;;6167500;23;20079;-82
2023/12/07 09:06:58;;;;;;;17.55;9.30;;;3.00;99.90;;;;;;6167874;23;20009;-82
2023/12/07 09:09:37;;;;;;;20.13;10.23;;;3.10;99.90;;;;;;6165012;23;20434;-84
2023/12/07 09:12:16;;;;;;;21.58;11.00;;;3.10;99.90;;;;;;6192273;23;20029;-87
2023/12/07 09:15:04;;;;;;;20.88;9.88;;;3.10;99.90;;;;;;6192288;23;20067;-83
2023/12/07 09:17:33;;;;;;;18.80;10.73;;;3.20;99.90;;;;;;6191544;23;20314;-85
2023/12/07 09:20:03;;;;;;;21.27;10.55;;;3.20;99.90;;;;;;6190100;23;20024;-84
2023/12/07 09:22:46;;;;;;;23.35;11.80;;;3.30;99.90;;;;;;6185520;23;20347;-86
2023/12/07 09:25:12;;;;;;;21.00;12.27;;;3.30;99.90;;;;;;6185563;23;20013;-85
2023/12/07 09:27:39;;;;;;;22.20;11.77;;;3.40;99.90;;;;;;6185426;23;20024;-83
2023/12/07 09:30:12;;;;;;;22.40;11.20;;;3.50;99.90;;;;;;6185273;23;20024;-85
2023/12/07 09:32:42;;;;;;;22.75;11.43;;;3.60;99.90;;;;;;6185443;23;20021;-85
2023/12/07 09:35:18;;;;;;;18.95;10.02;;;3.70;99.90;;;;;;6185344;23;20024;-85
2023/12/07 09:37:44;;;;;;;21.77;11.40;;;3.70;99.90;;;;;;6185351;23;20063;-85
2023/12/07 09:40:16;;;;;;;20.55;10.48;;;3.80;99.90;;;;;;6185292;23;20020;-86
2023/12/07 09:42:42;;;;;;;20.90;11.18;;;3.80;99.90;;;;;;6185912;23;20017;-84
2023/12/07 09:45:08;;;;;;;18.95;11.15;;;3.90;99.90;;;;;;6185359;23;20017;-85
2023/12/07 09:47:37;;;;;;;26.95;16.08;;;4.00;99.90;;;;;;6185405;23;20013;-85
2023/12/07 09:50:09;;;;;;;20.15;11.70;;;4.00;99.90;;;;;;6185201;23;20028;-84
2023/12/07 09:52:36;;;;;;;24.97;13.30;;;4.10;99.90;;;;;;6185300;23;20009;-84
2023/12/07 09:55:06;;;;;;;21.92;12.77;;;4.20;99.90;;;;;;6185176;23;20096;-86
2023/12/07 09:57:32;;;;;;;24.88;12.52;;;4.30;99.90;;;;;;6185586;23;20385;-86
2023/12/07 09:59:58;;;;;;;26.35;13.38;;;4.20;99.90;;;;;;6186613;23;20513;-86
2023/12/07 10:02:25;;;;;;;24.88;13.73;;;4.30;99.90;;;;;;6185278;23;20052;-86
2023/12/07 10:05:07;;;;;;;28.58;14.88;;;4.30;99.90;;;;;;6185178;23;20013;-84
2023/12/07 10:07:37;;;;;;;22.90;12.98;;;4.40;99.90;;;;;;6185127;23;20065;-85
2023/12/07 10:10:04;;;;;;;26.67;14.45;;;4.30;99.90;;;;;;6184778;23;20052;-84
2023/12/07 10:12:33;;;;;;;24.48;14.35;;;4.40;99.90;;;;;;6185078;23;20048;-85
2023/12/07 10:15:00;;;;;;;27.30;15.90;;;4.30;99.90;;;;;;6185048;23;20017;-84
2023/12/07 10:17:49;;;;;;;26.38;14.38;;;4.50;99.90;;;;;;6185156;23;20025;-84
2023/12/07 10:20:23;;;;;;;23.38;13.60;;;4.40;99.90;;;;;;6185044;23;20341;-84
2023/12/07 10:23:00;;;;;;;24.50;13.32;;;4.60;99.90;;;;;;6185012;23;20013;-84
2023/12/07 10:25:26;;;;;;;35.67;18.48;;;4.60;99.90;;;;;;6185012;23;20466;-84
2023/12/07 10:27:52;;;;;;;27.92;15.38;;;4.70;99.90;;;;;;6184700;23;20025;-84
2023/12/07 10:30:24;;;;;;;27.08;15.73;;;4.70;99.90;;;;;;6184852;23;20031;-85
2023/12/07 10:32:50;;;;;;;26.10;14.88;;;4.70;99.90;;;;;;6184533;23;20055;-85
2023/12/07 10:35:17;;;;;;;24.35;13.93;;;4.70;99.90;;;;;;6185207;23;20021;-84
2023/12/07 10:37:43;;;;;;;31.20;14.50;;;4.70;99.90;;;;;;6184907;23;20021;-84
2023/12/07 10:40:09;;;;;;;24.85;13.52;;;4.80;99.90;;;;;;6184897;23;20021;-84
2023/12/07 10:42:37;;;;;;;24.30;13.52;;;4.80;99.90;;;;;;6185231;23;20012;-84
2023/12/07 10:45:06;;;;;;;21.92;12.63;;;4.80;99.90;;;;;;6184757;23;20032;-84
2023/12/07 10:47:36;;;;;;;25.77;14.25;;;4.80;99.90;;;;;;6184747;23;20027;-83
2023/12/07 10:50:06;;;;;;;23.65;13.73;;;4.80;99.90;;;;;;6184693;23;20027;-86
2023/12/07 10:52:34;;;;;;;25.05;14.15;;;4.90;99.90;;;;;;6184796;23;20020;-85
2023/12/07 10:55:07;;;;;;;21.13;12.90;;;4.90;99.90;;;;;;6184711;23;20100;-83
2023/12/07 10:57:35;;;;;;;22.95;13.88;;;4.90;99.90;;;;;;6184692;23;20057;-82
2023/12/07 11:00:01;;;;;;;25.95;14.73;;;4.90;99.90;;;;;;6184673;23;20017;-86
2023/12/07 11:02:28;;;;;;;25.23;15.05;;;4.90;99.90;;;;;;6186461;23;20017;-86
2023/12/07 11:04:58;;;;;;;25.92;15.05;;;4.90;99.90;;;;;;6185247;23;20020;-84
2023/12/07 11:07:27;;;;;;;26.65;15.35;;;4.90;99.90;;;;;;6184589;23;20024;-85
2023/12/07 11:10:05;;;;;;;27.73;14.40;;;4.90;99.90;;;;;;6184204;23;20024;-86
2023/12/07 11:12:39;;;;;;;27.98;16.10;;;4.80;99.90;;;;;;6184594;23;20020;-86
2023/12/07 11:15:05;;;;;;;26.20;15.48;;;4.80;99.90;;;;;;6184510;23;20017;-84
2023/12/07 11:18:01;;;;;;;26.15;15.68;;;4.80;99.90;;;;;;6186388;23;20100;-81
2023/12/07 11:20:42;;;;;;;22.17;13.05;;;4.80;99.90;;;;;;6219348;23;20031;-84
2023/12/07 11:23:20;;;;;;;23.33;13.10;;;4.90;99.90;;;;;;6219536;23;20016;-86
2023/12/07 11:25:52;;;;;;;24.77;13.35;;;4.80;99.90;;;;;;6219505;23;20055;-86
2023/12/07 11:28:17;;;;;;;23.33;12.73;;;4.90;99.90;;;;;;6219366;23;20012;-86
2023/12/07 11:30:45;;;;;;;22.50;12.50;;;4.80;99.90;;;;;;6219597;23;20399;-86
2023/12/07 11:33:20;;;;;;;24.40;13.05;;;4.80;99.90;;;;;;6219378;23;20452;-86
2023/12/07 11:36:12;;;;;;;24.42;13.73;;;4.90;99.90;;;;;;6219776;23;20348;-86
2023/12/07 11:39:15;;;;;;;23.73;11.98;;;4.80;99.90;;;;;;6219465;23;20440;-86
2023/12/07 11:41:45;;;;;;;22.17;13.15;;;4.90;99.90;;;;;;6218818;23;20046;-86
2023/12/07 11:44:17;;;;;;;25.00;13.25;;;4.90;99.90;;;;;;6219940;23;20012;-86
2023/12/07 11:46:58;;;;;;;28.58;12.93;;;4.90;99.90;;;;;;6219507;23;20016;-86
2023/12/07 11:49:24;;;;;;;22.63;12.90;;;5.00;99.90;;;;;;6188745;23;20017;-86
2023/12/07 11:51:53;;;;;;;22.98;13.38;;;5.00;99.90;;;;;;6189320;23;20025;-86
2023/12/07 11:54:31;;;;;;;21.33;13.07;;;5.00;99.90;;;;;;6189409;23;20099;-86
2023/12/07 11:56:57;;;;;;;23.02;12.85;;;5.00;99.90;;;;;;6189362;23;20016;-86
2023/12/07 11:59:25;;;;;;;24.27;13.25;;;4.90;99.90;;;;;;6188988;23;20017;-86
2023/12/07 12:01:53;;;;;;;21.35;13.43;;;5.10;99.90;;;;;;6189119;23;20012;-86
2023/12/07 12:04:36;;;;;;;24.27;12.40;;;5.10;99.90;;;;;;6189375;23;20078;-86
2023/12/07 12:07:14;;;;;;;20.77;12.88;;;5.00;99.90;;;;;;6189336;23;20013;-86
2023/12/07 12:09:40;;;;;;;22.15;11.88;;;5.00;99.90;;;;;;6189167;23;20082;-86
2023/12/07 12:12:06;;;;;;;25.20;15.43;;;5.00;99.90;;;;;;6189103;23;20013;-86
2023/12/07 12:14:34;;;;;;;23.63;13.77;;;5.00;99.90;;;;;;6189672;23;20017;-86
2023/12/07 12:17:08;;;;;;;22.67;13.60;;;5.00;99.90;;;;;;6189329;23;20023;-86
2023/12/07 12:19:54;;;;;;;21.65;14.23;;;5.00;99.90;;;;;;6189098;23;20016;-86
2023/12/07 12:22:23;;;;;;;23.83;14.60;;;5.10;99.90;;;;;;6189232;23;20441;-86
2023/12/07 12:24:49;;;;;;;22.95;14.05;;;5.00;99.90;;;;;;6189187;23;20092;-86
2023/12/07 12:27:16;;;;;;;22.52;14.57;;;5.10;99.90;;;;;;6189362;23;20086;-86
2023/12/07 12:29:54;;;;;;;27.80;15.13;;;5.10;99.90;;;;;;6189003;23;20017;-86
2023/12/07 12:32:42;;;;;;;21.10;12.80;;;5.10;99.90;;;;;;6189256;23;20017;-86
2023/12/07 12:35:17;;;;;;;20.38;12.32;;;5.10;99.90;;;;;;6188965;23;20019;-86
2023/12/07 12:37:46;;;;;;;20.10;12.55;;;5.10;99.90;;;;;;6189203;23;20023;-86
2023/12/07 12:43:21;;;;;;;22.63;12.35;;;5.20;99.90;;;;;;6175602;23;20023;-86
2023/12/07 12:45:49;;;;;;;20.05;11.48;;;5.20;99.90;;;;;;6189091;23;20468;-86
2023/12/07 12:48:21;;;;;;;21.65;13.05;;;5.20;99.90;;;;;;6183607;23;20024;-85
2023/12/07 12:50:53;;;;;;;22.60;12.75;;;5.30;99.90;;;;;;6184201;23;20017;-86
2023/12/07 12:53:31;;;;;;;22.20;13.27;;;5.40;99.90;;;;;;6183909;23;20323;-86
2023/12/07 12:56:13;;;;;;;25.10;13.75;;;5.40;99.90;;;;;;6184867;23;20024;-86
2023/12/07 12:58:42;;;;;;;20.80;12.73;;;5.40;99.90;;;;;;6185902;23;20028;-85
2023/12/07 13:01:23;;;;;;;25.23;15.30;;;5.30;99.90;;;;;;6185907;23;20017;-86
2023/12/07 13:03:49;;;;;;;26.00;14.63;;;5.30;99.90;;;;;;6186025;23;20021;-86
2023/12/07 13:06:24;;;;;;;23.20;13.68;;;5.30;99.90;;;;;;6185946;23;20028;-86